Globe, Kentucky
Current Conditions -  °F | °C
As of 5:10 AM on Wednesday 26 Nov 2014 (Local Time) from KSYM Reporting Station
Overcast Overcast  
Wind Chill: 32°   Ceiling: 10000
Heat Index: 36°   Visibility: 10mi
Dew Point: 27°   Wind: 5mph
Humidity: 70%   Direction: 30°NNE
Pressure: 30.06"   Gusts: NA
Location:  38.3543°N, 83.1837°W
Report Text: KSYM 261010Z AUTO 03004KT 10SM OVC100 02/M03 A3006 RMK AO2
Loading
Personal Weather Stations






























Interactive Weather Map New forecast layout! Learn more

10-Day Weather Forecast

Advertisements
Track Severe Weather on mobile